﻿<?xml version="1.0" encoding="UTF-8" standalone="no"?>
<gpx xmlns="http://www.topografix.com/GPX/1/1" xmlns:gpxtpx="http://www.garmin.com/xmlschemas/TrackPointExtension/v1" xmlns:xsi="http://www.w3.org/2001/XMLSchema-instance" creator="Hribi.net" version="1.1" xsi:schemaLocation="http://www.topografix.com/GPX/1/1 http://www.topografix.com/GPX/1/1/gpx.xsd http://www.garmin.com/xmlschemas/TrackPointExtension/v1 http://www.garmin.com/xmlschemas/TrackPointExtensionv1.xsd">
  <metadata>
    <name>GPS sled</name>
    <desc>www.hribi.net</desc>
    <author>
      <name>hribi.net</name>
    </author>
    <link href="http://www.hribi.net">
      <text>Hribi.net</text>
    </link>
  </metadata>
  <trk>
    <trkseg>
      <trkpt lat="46.419073" lon="14.526908">
        <ele>1220.1144</ele>
        <time>2015-09-10T14:06:28Z</time>
      </trkpt>
      <trkpt lat="46.419740" lon="14.526702">
        <ele>1227.1248</ele>
        <time>2015-09-10T14:07:29Z</time>
      </trkpt>
      <trkpt lat="46.420132" lon="14.526275">
        <ele>1237.1832</ele>
        <time>2015-09-10T14:08:30Z</time>
      </trkpt>
      <trkpt lat="46.420713" lon="14.526851">
        <ele>1245.108</ele>
        <time>2015-09-10T14:09:29Z</time>
      </trkpt>
      <trkpt lat="46.420753" lon="14.526948">
        <ele>1246.9368</ele>
        <time>2015-09-10T14:10:30Z</time>
      </trkpt>
      <trkpt lat="46.421397" lon="14.526731">
        <ele>1253.3376</ele>
        <time>2015-09-10T14:11:30Z</time>
      </trkpt>
      <trkpt lat="46.421970" lon="14.526319">
        <ele>1262.4816</ele>
        <time>2015-09-10T14:12:31Z</time>
      </trkpt>
      <trkpt lat="46.422505" lon="14.526776">
        <ele>1270.7112</ele>
        <time>2015-09-10T14:13:32Z</time>
      </trkpt>
      <trkpt lat="46.422622" lon="14.527703">
        <ele>1277.4168</ele>
        <time>2015-09-10T14:14:33Z</time>
      </trkpt>
      <trkpt lat="46.422836" lon="14.528756">
        <ele>1279.8552</ele>
        <time>2015-09-10T14:15:34Z</time>
      </trkpt>
      <trkpt lat="46.423130" lon="14.529240">
        <ele>1284.732</ele>
        <time>2015-09-10T14:16:15Z</time>
      </trkpt>
      <trkpt lat="46.423552" lon="14.529786">
        <ele>1290.2184</ele>
        <time>2015-09-10T14:17:11Z</time>
      </trkpt>
      <trkpt lat="46.423809" lon="14.530446">
        <ele>1297.5336</ele>
        <time>2015-09-10T14:18:11Z</time>
      </trkpt>
      <trkpt lat="46.424190" lon="14.531063">
        <ele>1304.8488</ele>
        <time>2015-09-10T14:19:11Z</time>
      </trkpt>
      <trkpt lat="46.425033" lon="14.531078">
        <ele>1306.3728</ele>
        <time>2015-09-10T14:20:13Z</time>
      </trkpt>
      <trkpt lat="46.425570" lon="14.531647">
        <ele>1313.0784</ele>
        <time>2015-09-10T14:21:13Z</time>
      </trkpt>
      <trkpt lat="46.425723" lon="14.531325">
        <ele>1320.6984</ele>
        <time>2015-09-10T14:22:11Z</time>
      </trkpt>
      <trkpt lat="46.426078" lon="14.531060">
        <ele>1335.6336</ele>
        <time>2015-09-10T14:23:15Z</time>
      </trkpt>
      <trkpt lat="46.426457" lon="14.530696">
        <ele>1342.0344</ele>
        <time>2015-09-10T14:24:11Z</time>
      </trkpt>
      <trkpt lat="46.426795" lon="14.530345">
        <ele>1345.0824</ele>
        <time>2015-09-10T14:25:13Z</time>
      </trkpt>
      <trkpt lat="46.427122" lon="14.529978">
        <ele>1353.9216</ele>
        <time>2015-09-10T14:26:15Z</time>
      </trkpt>
      <trkpt lat="46.427284" lon="14.529764">
        <ele>1362.1512</ele>
        <time>2015-09-10T14:27:14Z</time>
      </trkpt>
      <trkpt lat="46.427244" lon="14.529363">
        <ele>1373.4288</ele>
        <time>2015-09-10T14:28:12Z</time>
      </trkpt>
      <trkpt lat="46.427512" lon="14.528893">
        <ele>1381.9632</ele>
        <time>2015-09-10T14:29:11Z</time>
      </trkpt>
      <trkpt lat="46.427260" lon="14.528577">
        <ele>1398.1176</ele>
        <time>2015-09-10T14:30:13Z</time>
      </trkpt>
      <trkpt lat="46.426922" lon="14.528414">
        <ele>1407.8712</ele>
        <time>2015-09-10T14:31:24Z</time>
      </trkpt>
      <trkpt lat="46.426836" lon="14.528146">
        <ele>1413.6624</ele>
        <time>2015-09-10T14:32:11Z</time>
      </trkpt>
      <trkpt lat="46.426811" lon="14.527885">
        <ele>1422.5016</ele>
        <time>2015-09-10T14:33:21Z</time>
      </trkpt>
      <trkpt lat="46.426720" lon="14.527618">
        <ele>1435.608</ele>
        <time>2015-09-10T14:34:17Z</time>
      </trkpt>
      <trkpt lat="46.427023" lon="14.527152">
        <ele>1447.1904</ele>
        <time>2015-09-10T14:35:14Z</time>
      </trkpt>
      <trkpt lat="46.426966" lon="14.526727">
        <ele>1456.3344</ele>
        <time>2015-09-10T14:36:11Z</time>
      </trkpt>
      <trkpt lat="46.427028" lon="14.526948">
        <ele>1456.0296</ele>
        <time>2015-09-10T14:37:14Z</time>
      </trkpt>
      <trkpt lat="46.426903" lon="14.526875">
        <ele>1456.0296</ele>
        <time>2015-09-10T14:38:14Z</time>
      </trkpt>
      <trkpt lat="46.427001" lon="14.526914">
        <ele>1456.0296</ele>
        <time>2015-09-10T14:39:13Z</time>
      </trkpt>
      <trkpt lat="46.426924" lon="14.526938">
        <ele>1459.0776</ele>
        <time>2015-09-10T14:40:13Z</time>
      </trkpt>
      <trkpt lat="46.426723" lon="14.526858">
        <ele>1470.0504</ele>
        <time>2015-09-10T14:41:12Z</time>
      </trkpt>
      <trkpt lat="46.426478" lon="14.526576">
        <ele>1480.4136</ele>
        <time>2015-09-10T14:42:12Z</time>
      </trkpt>
      <trkpt lat="46.426207" lon="14.526177">
        <ele>1487.424</ele>
        <time>2015-09-10T14:43:11Z</time>
      </trkpt>
      <trkpt lat="46.425817" lon="14.525573">
        <ele>1495.044</ele>
        <time>2015-09-10T14:44:11Z</time>
      </trkpt>
      <trkpt lat="46.425861" lon="14.524748">
        <ele>1502.3592</ele>
        <time>2015-09-10T14:45:11Z</time>
      </trkpt>
      <trkpt lat="46.425682" lon="14.524062">
        <ele>1509.3696</ele>
        <time>2015-09-10T14:46:11Z</time>
      </trkpt>
      <trkpt lat="46.425588" lon="14.523393">
        <ele>1515.4656</ele>
        <time>2015-09-10T14:47:11Z</time>
      </trkpt>
      <trkpt lat="46.425214" lon="14.522429">
        <ele>1525.524</ele>
        <time>2015-09-10T14:48:11Z</time>
      </trkpt>
      <trkpt lat="46.425145" lon="14.522479">
        <ele>1535.2776</ele>
        <time>2015-09-10T14:49:11Z</time>
      </trkpt>
      <trkpt lat="46.425466" lon="14.521992">
        <ele>1546.2504</ele>
        <time>2015-09-10T14:50:11Z</time>
      </trkpt>
      <trkpt lat="46.425837" lon="14.522467">
        <ele>1554.48</ele>
        <time>2015-09-10T14:51:11Z</time>
      </trkpt>
      <trkpt lat="46.425631" lon="14.521658">
        <ele>1566.3672</ele>
        <time>2015-09-10T14:52:11Z</time>
      </trkpt>
      <trkpt lat="46.426101" lon="14.522130">
        <ele>1576.4256</ele>
        <time>2015-09-10T14:53:13Z</time>
      </trkpt>
      <trkpt lat="46.426294" lon="14.522205">
        <ele>1585.8744</ele>
        <time>2015-09-10T14:54:13Z</time>
      </trkpt>
      <trkpt lat="46.426448" lon="14.522362">
        <ele>1591.9704</ele>
        <time>2015-09-10T14:55:14Z</time>
      </trkpt>
      <trkpt lat="46.426699" lon="14.522605">
        <ele>1598.9808</ele>
        <time>2015-09-10T14:56:13Z</time>
      </trkpt>
      <trkpt lat="46.426997" lon="14.522891">
        <ele>1608.7344</ele>
        <time>2015-09-10T14:57:11Z</time>
      </trkpt>
      <trkpt lat="46.427276" lon="14.523076">
        <ele>1621.536</ele>
        <time>2015-09-10T14:58:14Z</time>
      </trkpt>
      <trkpt lat="46.427437" lon="14.523148">
        <ele>1629.156</ele>
        <time>2015-09-10T14:59:14Z</time>
      </trkpt>
      <trkpt lat="46.427554" lon="14.523203">
        <ele>1633.1184</ele>
        <time>2015-09-10T15:00:11Z</time>
      </trkpt>
      <trkpt lat="46.427570" lon="14.523201">
        <ele>1633.1184</ele>
        <time>2015-09-10T15:01:14Z</time>
      </trkpt>
      <trkpt lat="46.427571" lon="14.523212">
        <ele>1633.1184</ele>
        <time>2015-09-10T15:02:13Z</time>
      </trkpt>
      <trkpt lat="46.427607" lon="14.523236">
        <ele>1634.9472</ele>
        <time>2015-09-10T15:03:13Z</time>
      </trkpt>
      <trkpt lat="46.427804" lon="14.523455">
        <ele>1644.0912</ele>
        <time>2015-09-10T15:04:19Z</time>
      </trkpt>
      <trkpt lat="46.428245" lon="14.523524">
        <ele>1655.064</ele>
        <time>2015-09-10T15:05:14Z</time>
      </trkpt>
      <trkpt lat="46.428395" lon="14.523640">
        <ele>1662.0744</ele>
        <time>2015-09-10T15:06:14Z</time>
      </trkpt>
      <trkpt lat="46.428499" lon="14.523597">
        <ele>1669.9992</ele>
        <time>2015-09-10T15:07:11Z</time>
      </trkpt>
      <trkpt lat="46.428624" lon="14.523195">
        <ele>1674.2664</ele>
        <time>2015-09-10T15:08:11Z</time>
      </trkpt>
      <trkpt lat="46.429079" lon="14.523566">
        <ele>1677.0096</ele>
        <time>2015-09-10T15:09:11Z</time>
      </trkpt>
      <trkpt lat="46.429236" lon="14.523598">
        <ele>1675.4856</ele>
        <time>2015-09-10T15:10:11Z</time>
      </trkpt>
      <trkpt lat="46.429465" lon="14.523769">
        <ele>1685.2392</ele>
        <time>2015-09-10T15:11:11Z</time>
      </trkpt>
      <trkpt lat="46.429509" lon="14.523987">
        <ele>1698.0408</ele>
        <time>2015-09-10T15:12:14Z</time>
      </trkpt>
      <trkpt lat="46.429410" lon="14.524175">
        <ele>1708.404</ele>
        <time>2015-09-10T15:13:11Z</time>
      </trkpt>
      <trkpt lat="46.429455" lon="14.524007">
        <ele>1709.0136</ele>
        <time>2015-09-10T15:14:11Z</time>
      </trkpt>
      <trkpt lat="46.429446" lon="14.524173">
        <ele>1718.4624</ele>
        <time>2015-09-10T15:15:11Z</time>
      </trkpt>
      <trkpt lat="46.429470" lon="14.524227">
        <ele>1722.12</ele>
        <time>2015-09-10T15:16:11Z</time>
      </trkpt>
      <trkpt lat="46.429582" lon="14.524242">
        <ele>1728.216</ele>
        <time>2015-09-10T15:17:11Z</time>
      </trkpt>
      <trkpt lat="46.429933" lon="14.524464">
        <ele>1735.5312</ele>
        <time>2015-09-10T15:18:11Z</time>
      </trkpt>
      <trkpt lat="46.430111" lon="14.524800">
        <ele>1747.4184</ele>
        <time>2015-09-10T15:19:12Z</time>
      </trkpt>
      <trkpt lat="46.430599" lon="14.524945">
        <ele>1750.1616</ele>
        <time>2015-09-10T15:20:11Z</time>
      </trkpt>
      <trkpt lat="46.431044" lon="14.525302">
        <ele>1755.0384</ele>
        <time>2015-09-10T15:21:11Z</time>
      </trkpt>
      <trkpt lat="46.431091" lon="14.525410">
        <ele>1759.9152</ele>
        <time>2015-09-10T15:37:13Z</time>
      </trkpt>
      <trkpt lat="46.431080" lon="14.525119">
        <ele>1755.0384</ele>
        <time>2015-09-10T15:38:14Z</time>
      </trkpt>
      <trkpt lat="46.430556" lon="14.524965">
        <ele>1751.076</ele>
        <time>2015-09-10T15:39:12Z</time>
      </trkpt>
      <trkpt lat="46.430144" lon="14.524649">
        <ele>1746.8088</ele>
        <time>2015-09-10T15:40:12Z</time>
      </trkpt>
      <trkpt lat="46.429873" lon="14.524300">
        <ele>1735.836</ele>
        <time>2015-09-10T15:41:12Z</time>
      </trkpt>
      <trkpt lat="46.429633" lon="14.524160">
        <ele>1730.0448</ele>
        <time>2015-09-10T15:42:12Z</time>
      </trkpt>
      <trkpt lat="46.429390" lon="14.524145">
        <ele>1724.5584</ele>
        <time>2015-09-10T15:43:12Z</time>
      </trkpt>
      <trkpt lat="46.429300" lon="14.524286">
        <ele>1714.5</ele>
        <time>2015-09-10T15:44:12Z</time>
      </trkpt>
      <trkpt lat="46.429475" lon="14.523897">
        <ele>1705.0512</ele>
        <time>2015-09-10T15:45:12Z</time>
      </trkpt>
      <trkpt lat="46.429447" lon="14.523614">
        <ele>1695.6024</ele>
        <time>2015-09-10T15:46:12Z</time>
      </trkpt>
      <trkpt lat="46.429876" lon="14.524390">
        <ele>1686.1536</ele>
        <time>2015-09-10T15:47:12Z</time>
      </trkpt>
      <trkpt lat="46.429080" lon="14.523594">
        <ele>1675.4856</ele>
        <time>2015-09-10T15:48:15Z</time>
      </trkpt>
      <trkpt lat="46.428808" lon="14.523558">
        <ele>1680.3624</ele>
        <time>2015-09-10T15:49:17Z</time>
      </trkpt>
      <trkpt lat="46.428555" lon="14.523583">
        <ele>1674.5712</ele>
        <time>2015-09-10T15:50:14Z</time>
      </trkpt>
      <trkpt lat="46.428675" lon="14.523239">
        <ele>1669.0848</ele>
        <time>2015-09-10T15:51:12Z</time>
      </trkpt>
      <trkpt lat="46.428227" lon="14.523658">
        <ele>1658.7216</ele>
        <time>2015-09-10T15:52:12Z</time>
      </trkpt>
      <trkpt lat="46.427822" lon="14.523489">
        <ele>1648.3584</ele>
        <time>2015-09-10T15:53:12Z</time>
      </trkpt>
      <trkpt lat="46.427558" lon="14.523600">
        <ele>1639.5192</ele>
        <time>2015-09-10T15:54:15Z</time>
      </trkpt>
      <trkpt lat="46.427314" lon="14.523130">
        <ele>1629.156</ele>
        <time>2015-09-10T15:55:12Z</time>
      </trkpt>
      <trkpt lat="46.427100" lon="14.523055">
        <ele>1615.1352</ele>
        <time>2015-09-10T15:56:12Z</time>
      </trkpt>
      <trkpt lat="46.426640" lon="14.522774">
        <ele>1602.0288</ele>
        <time>2015-09-10T15:57:18Z</time>
      </trkpt>
      <trkpt lat="46.426486" lon="14.522190">
        <ele>1591.3608</ele>
        <time>2015-09-10T15:58:18Z</time>
      </trkpt>
      <trkpt lat="46.426194" lon="14.522161">
        <ele>1579.1688</ele>
        <time>2015-09-10T15:59:14Z</time>
      </trkpt>
      <trkpt lat="46.425976" lon="14.522091">
        <ele>1565.4528</ele>
        <time>2015-09-10T16:00:12Z</time>
      </trkpt>
      <trkpt lat="46.425623" lon="14.522144">
        <ele>1551.432</ele>
        <time>2015-09-10T16:01:14Z</time>
      </trkpt>
      <trkpt lat="46.424926" lon="14.522886">
        <ele>1537.4112</ele>
        <time>2015-09-10T16:02:12Z</time>
      </trkpt>
      <trkpt lat="46.425175" lon="14.523090">
        <ele>1523.3904</ele>
        <time>2015-09-10T16:03:12Z</time>
      </trkpt>
      <trkpt lat="46.425734" lon="14.523666">
        <ele>1512.7224</ele>
        <time>2015-09-10T16:04:16Z</time>
      </trkpt>
      <trkpt lat="46.425945" lon="14.524587">
        <ele>1504.4928</ele>
        <time>2015-09-10T16:05:14Z</time>
      </trkpt>
      <trkpt lat="46.425616" lon="14.525575">
        <ele>1495.3488</ele>
        <time>2015-09-10T16:06:12Z</time>
      </trkpt>
      <trkpt lat="46.426233" lon="14.526530">
        <ele>1485.9</ele>
        <time>2015-09-10T16:07:15Z</time>
      </trkpt>
      <trkpt lat="46.426604" lon="14.526613">
        <ele>1474.6224</ele>
        <time>2015-09-10T16:08:17Z</time>
      </trkpt>
      <trkpt lat="46.427016" lon="14.526752">
        <ele>1459.3824</ele>
        <time>2015-09-10T16:09:18Z</time>
      </trkpt>
      <trkpt lat="46.426655" lon="14.527102">
        <ele>1455.1152</ele>
        <time>2015-09-10T16:10:15Z</time>
      </trkpt>
      <trkpt lat="46.427090" lon="14.527040">
        <ele>1451.4576</ele>
        <time>2015-09-10T16:11:17Z</time>
      </trkpt>
      <trkpt lat="46.426324" lon="14.528053">
        <ele>1441.0944</ele>
        <time>2015-09-10T16:12:13Z</time>
      </trkpt>
      <trkpt lat="46.426464" lon="14.527988">
        <ele>1426.1592</ele>
        <time>2015-09-10T16:13:13Z</time>
      </trkpt>
      <trkpt lat="46.427032" lon="14.528226">
        <ele>1413.0528</ele>
        <time>2015-09-10T16:14:16Z</time>
      </trkpt>
      <trkpt lat="46.427206" lon="14.528448">
        <ele>1398.7272</ele>
        <time>2015-09-10T16:15:15Z</time>
      </trkpt>
      <trkpt lat="46.427769" lon="14.528490">
        <ele>1388.364</ele>
        <time>2015-09-10T16:16:16Z</time>
      </trkpt>
      <trkpt lat="46.427448" lon="14.528883">
        <ele>1382.5728</ele>
        <time>2015-09-10T16:17:16Z</time>
      </trkpt>
      <trkpt lat="46.427140" lon="14.529171">
        <ele>1374.0384</ele>
        <time>2015-09-10T16:18:15Z</time>
      </trkpt>
      <trkpt lat="46.427224" lon="14.530034">
        <ele>1356.36</ele>
        <time>2015-09-10T16:19:15Z</time>
      </trkpt>
      <trkpt lat="46.426811" lon="14.530553">
        <ele>1343.5584</ele>
        <time>2015-09-10T16:20:12Z</time>
      </trkpt>
      <trkpt lat="46.426367" lon="14.531013">
        <ele>1336.548</ele>
        <time>2015-09-10T16:21:12Z</time>
      </trkpt>
      <trkpt lat="46.425602" lon="14.531497">
        <ele>1318.5648</ele>
        <time>2015-09-10T16:22:16Z</time>
      </trkpt>
      <trkpt lat="46.425311" lon="14.531359">
        <ele>1307.592</ele>
        <time>2015-09-10T16:23:14Z</time>
      </trkpt>
      <trkpt lat="46.424627" lon="14.531393">
        <ele>1302.1056</ele>
        <time>2015-09-10T16:24:12Z</time>
      </trkpt>
      <trkpt lat="46.424516" lon="14.531256">
        <ele>1300.5816</ele>
        <time>2015-09-10T16:25:12Z</time>
      </trkpt>
      <trkpt lat="46.423618" lon="14.530004">
        <ele>1291.4376</ele>
        <time>2015-09-10T16:26:15Z</time>
      </trkpt>
      <trkpt lat="46.423132" lon="14.529484">
        <ele>1282.5984</ele>
        <time>2015-09-10T16:27:12Z</time>
      </trkpt>
      <trkpt lat="46.422778" lon="14.528637">
        <ele>1276.8072</ele>
        <time>2015-09-10T16:28:12Z</time>
      </trkpt>
      <trkpt lat="46.422620" lon="14.527584">
        <ele>1273.4544</ele>
        <time>2015-09-10T16:29:14Z</time>
      </trkpt>
      <trkpt lat="46.422525" lon="14.526768">
        <ele>1267.968</ele>
        <time>2015-09-10T16:30:12Z</time>
      </trkpt>
      <trkpt lat="46.421910" lon="14.526443">
        <ele>1258.824</ele>
        <time>2015-09-10T16:31:16Z</time>
      </trkpt>
      <trkpt lat="46.421420" lon="14.526835">
        <ele>1248.7656</ele>
        <time>2015-09-10T16:32:16Z</time>
      </trkpt>
      <trkpt lat="46.420574" lon="14.526804">
        <ele>1239.3168</ele>
        <time>2015-09-10T16:33:16Z</time>
      </trkpt>
      <trkpt lat="46.420019" lon="14.526255">
        <ele>1232.0016</ele>
        <time>2015-09-10T16:34:12Z</time>
      </trkpt>
      <trkpt lat="46.419495" lon="14.526762">
        <ele>1220.4192</ele>
        <time>2015-09-10T16:35:12Z</time>
      </trkpt>
    </trkseg>
  </trk>
</gpx>
